Time,TemperatureF,DewpointF,PressureIn,WindDirection,WindDirectionDegrees,WindSpeedMPH,WindSpeedGustMPH,Humidity,HourlyPrecipIn,Conditions,Clouds,dailyrainin,SoftwareType,DateUTC
2013-09-13 00:00:00,65.5,62.8,29.91,West,269,0.0,0.0,91,0.00,,,0.00,Wunderground v.1.15,2013-09-13 04:00:00,
2013-09-13 00:05:00,65.4,62.7,29.91,West,269,0.0,0.0,91,0.00,,,0.00,Wunderground v.1.15,2013-09-13 04:05:00,
2013-09-13 00:10:00,65.4,63.0,29.91,West,269,0.0,0.0,92,0.00,,,0.00,Wunderground v.1.15,2013-09-13 04:10:00,
2013-09-13 00:15:00,65.4,63.0,29.90,West,269,0.0,0.0,92,0.00,,,0.00,Wunderground v.1.15,2013-09-13 04:15:00,
2013-09-13 00:20:00,65.4,63.0,29.90,West,269,0.0,0.0,92,0.00,,,0.00,Wunderground v.1.15,2013-09-13 04:20:00,
2013-09-13 00:25:00,65.4,63.0,29.90,West,269,0.0,0.0,92,0.00,,,0.00,Wunderground v.1.15,2013-09-13 04:25:00,
2013-09-13 00:30:00,65.4,63.0,29.90,West,269,0.0,0.0,92,0.00,,,0.00,Wunderground v.1.15,2013-09-13 04:30:00,
2013-09-13 00:35:00,65.3,62.9,29.90,West,269,0.0,0.0,92,0.00,,,0.00,Wunderground v.1.15,2013-09-13 04:35:00,
2013-09-13 00:45:00,65.3,62.9,29.89,West,269,0.0,0.0,92,0.00,,,0.00,Wunderground v.1.15,2013-09-13 04:45:00,
2013-09-13 00:55:00,65.2,62.8,29.89,West,270,0.0,0.0,92,0.00,,,0.00,Wunderground v.1.15,2013-09-13 04:55:00,
2013-09-13 01:00:00,65.2,62.8,29.89,West,270,0.0,0.0,92,0.00,,,0.00,Wunderground v.1.15,2013-09-13 05:00:00,
2013-09-13 01:10:00,65.1,62.7,29.89,West,270,0.0,0.0,92,0.00,,,0.00,Wunderground v.1.15,2013-09-13 05:10:00,
2013-09-13 01:15:00,65.0,62.6,29.88,West,270,0.0,0.0,92,0.00,,,0.00,Wunderground v.1.15,2013-09-13 05:15:00,
2013-09-13 01:20:00,65.0,62.6,29.88,NW,309,0.0,0.0,92,0.00,,,0.00,Wunderground v.1.15,2013-09-13 05:20:00,
2013-09-13 01:25:00,64.9,62.5,29.88,NNW,328,0.0,0.0,92,0.00,,,0.00,Wunderground v.1.15,2013-09-13 05:25:00,
2013-09-13 01:30:00,64.9,62.5,29.87,NW,309,1.0,1.0,92,0.00,,,0.00,Wunderground v.1.15,2013-09-13 05:30:00,
2013-09-13 01:40:00,64.9,62.5,29.87,NW,318,0.0,0.0,92,0.00,,,0.00,Wunderground v.1.15,2013-09-13 05:40:00,
2013-09-13 01:45:00,64.9,62.5,29.87,WNW,291,0.0,0.0,92,0.00,,,0.00,Wunderground v.1.15,2013-09-13 05:45:00,
2013-09-13 01:50:00,64.9,62.5,29.87,NW,305,1.0,1.0,92,0.00,,,0.00,Wunderground v.1.15,2013-09-13 05:50:00,
2013-09-13 01:55:00,64.8,62.4,29.87,NW,326,1.0,3.0,92,0.00,,,0.00,Wunderground v.1.15,2013-09-13 05:55:00,
2013-09-13 02:00:00,64.8,62.4,29.87,North,5,1.0,1.0,92,0.00,,,0.00,Wunderground v.1.15,2013-09-13 06:00:00,
2013-09-13 02:10:00,64.8,62.4,29.87,WNW,289,0.0,0.0,92,0.00,,,0.00,Wunderground v.1.15,2013-09-13 06:10:00,
2013-09-13 02:15:00,64.8,62.4,29.87,WNW,295,0.0,3.0,92,0.00,,,0.00,Wunderground v.1.15,2013-09-13 06:15:00,
2013-09-13 02:20:00,64.7,62.3,29.87,West,274,1.0,4.0,92,0.00,,,0.00,Wunderground v.1.15,2013-09-13 06:20:00,
2013-09-13 02:25:00,64.7,62.3,29.87,WNW,293,2.0,4.0,92,0.00,,,0.00,Wunderground v.1.15,2013-09-13 06:25:00,
2013-09-13 02:30:00,64.6,62.2,29.87,NW,304,1.0,1.0,92,0.00,,,0.00,Wunderground v.1.15,2013-09-13 06:30:00,
2013-09-13 02:40:00,64.5,62.1,29.87,NW,304,1.0,3.0,92,0.00,,,0.00,Wunderground v.1.15,2013-09-13 06:40:00,
2013-09-13 02:45:00,64.6,62.2,29.87,NW,311,1.0,3.0,92,0.00,,,0.00,Wunderground v.1.15,2013-09-13 06:45:00,
2013-09-13 02:55:00,64.7,62.3,29.87,WNW,295,1.0,1.0,92,0.00,,,0.00,Wunderground v.1.15,2013-09-13 06:55:00,
2013-09-13 03:00:00,64.7,62.3,29.87,NNW,327,1.0,1.0,92,0.00,,,0.00,Wunderground v.1.15,2013-09-13 07:00:00,
2013-09-13 03:05:00,64.7,62.3,29.86,NNW,327,0.0,1.0,92,0.00,,,0.00,Wunderground v.1.15,2013-09-13 07:05:00,
2013-09-13 03:10:00,64.7,62.3,29.87,NW,317,0.0,0.0,92,0.00,,,0.00,Wunderground v.1.15,2013-09-13 07:10:00,
2013-09-13 03:15:00,64.8,62.4,29.87,NW,317,0.0,0.0,92,0.00,,,0.00,Wunderground v.1.15,2013-09-13 07:15:00,
2013-09-13 03:25:00,64.9,62.5,29.87,WNW,284,0.0,8.0,92,0.00,,,0.00,Wunderground v.1.15,2013-09-13 07:25:00,
2013-09-13 03:30:00,64.8,62.4,29.87,WNW,286,1.0,1.0,92,0.00,,,0.00,Wunderground v.1.15,2013-09-13 07:30:00,
2013-09-13 03:40:00,64.9,62.5,29.86,WNW,294,2.0,7.0,92,0.00,,,0.00,Wunderground v.1.15,2013-09-13 07:40:00,
2013-09-13 03:45:00,65.0,62.3,29.86,WNW,293,2.0,7.0,91,0.00,,,0.00,Wunderground v.1.15,2013-09-13 07:45:00,
2013-09-13 03:55:00,64.8,62.1,29.86,WNW,292,1.0,3.0,91,0.00,,,0.00,Wunderground v.1.15,2013-09-13 07:55:00,
2013-09-13 04:00:00,64.8,62.1,29.86,WNW,286,2.0,2.0,91,0.00,,,0.00,Wunderground v.1.15,2013-09-13 08:00:00,
2013-09-13 04:10:00,64.7,62.0,29.86,WNW,286,0.0,0.0,91,0.00,,,0.00,Wunderground v.1.15,2013-09-13 08:10:00,
2013-09-13 04:15:00,64.6,61.9,29.86,WNW,286,0.0,0.0,91,0.00,,,0.00,Wunderground v.1.15,2013-09-13 08:15:00,
2013-09-13 04:20:00,64.7,62.0,29.86,WNW,286,0.0,0.0,91,0.00,,,0.00,Wunderground v.1.15,2013-09-13 08:20:00,
2013-09-13 04:25:00,64.6,61.9,29.85,WNW,286,0.0,0.0,91,0.00,,,0.00,Wunderground v.1.15,2013-09-13 08:25:00,
2013-09-13 04:30:00,64.5,61.8,29.85,WNW,286,0.0,2.0,91,0.00,,,0.00,Wunderground v.1.15,2013-09-13 08:30:00,
2013-09-13 04:40:00,64.4,61.7,29.85,WNW,286,0.0,0.0,91,0.00,,,0.00,Wunderground v.1.15,2013-09-13 08:40:00,
2013-09-13 04:45:00,64.4,61.7,29.85,WNW,286,0.0,0.0,91,0.00,,,0.00,Wunderground v.1.15,2013-09-13 08:45:00,
2013-09-13 04:50:00,64.4,61.7,29.85,WNW,297,0.0,2.0,91,0.00,,,0.00,Wunderground v.1.15,2013-09-13 08:50:00,
2013-09-13 04:55:00,64.5,61.8,29.85,WNW,302,1.0,2.0,91,0.00,,,0.00,Wunderground v.1.15,2013-09-13 08:55:00,
2013-09-13 05:00:00,64.5,61.8,29.85,WNW,302,1.0,1.0,91,0.00,,,0.00,Wunderground v.1.15,2013-09-13 09:00:00,
2013-09-13 05:10:00,64.5,61.8,29.85,NW,321,0.0,1.0,91,0.00,,,0.00,Wunderground v.1.15,2013-09-13 09:10:00,
2013-09-13 05:15:00,64.5,61.8,29.85,WNW,287,1.0,1.0,91,0.00,,,0.00,Wunderground v.1.15,2013-09-13 09:15:00,
2013-09-13 05:25:00,64.7,61.7,29.85,NW,315,2.0,2.0,90,0.00,,,0.00,Wunderground v.1.15,2013-09-13 09:25:00,
2013-09-13 05:30:00,64.7,62.0,29.85,WNW,294,1.0,1.0,91,0.00,,,0.00,Wunderground v.1.15,2013-09-13 09:30:00,
2013-09-13 05:35:00,64.7,61.7,29.85,West,277,1.0,1.0,90,0.00,,,0.00,Wunderground v.1.15,2013-09-13 09:35:00,
2013-09-13 05:40:00,64.8,61.8,29.85,West,277,2.0,2.0,90,0.00,,,0.00,Wunderground v.1.15,2013-09-13 09:40:00,
2013-09-13 05:45:00,64.8,61.8,29.86,SW,214,2.0,8.0,90,0.00,,,0.00,Wunderground v.1.15,2013-09-13 09:45:00,
2013-09-13 05:55:00,65.0,61.7,29.85,WNW,293,3.0,5.0,89,0.00,,,0.00,Wunderground v.1.15,2013-09-13 09:55:00,
2013-09-13 06:00:00,65.0,61.7,29.85,WNW,285,3.0,5.0,89,0.00,,,0.00,Wunderground v.1.15,2013-09-13 10:00:00,
2013-09-13 06:10:00,64.5,61.2,29.85,WSW,249,2.0,2.0,89,0.00,,,0.00,Wunderground v.1.15,2013-09-13 10:10:00,
2013-09-13 06:15:00,64.7,61.4,29.85,WNW,292,3.0,3.0,89,0.00,,,0.00,Wunderground v.1.15,2013-09-13 10:15:00,
2013-09-13 06:25:00,65.0,61.7,29.86,West,273,4.0,5.0,89,0.00,,,0.00,Wunderground v.1.15,2013-09-13 10:25:00,
2013-09-13 06:30:00,64.8,61.5,29.86,WSW,250,2.0,2.0,89,0.00,,,0.00,Wunderground v.1.15,2013-09-13 10:30:00,
2013-09-13 06:35:00,64.7,61.4,29.86,SW,236,1.0,2.0,89,0.00,,,0.00,Wunderground v.1.15,2013-09-13 10:35:00,
2013-09-13 06:40:00,64.6,61.6,29.86,SW,236,1.0,1.0,90,0.00,,,0.00,Wunderground v.1.15,2013-09-13 10:40:00,
2013-09-13 06:45:00,64.4,61.1,29.86,SW,236,0.0,1.0,89,0.00,,,0.00,Wunderground v.1.15,2013-09-13 10:45:00,
2013-09-13 06:55:00,64.4,61.4,29.86,WSW,237,0.0,0.0,90,0.00,,,0.00,Wunderground v.1.15,2013-09-13 10:55:00,
2013-09-13 07:00:00,64.4,61.4,29.87,WSW,237,0.0,0.0,90,0.00,,,0.00,Wunderground v.1.15,2013-09-13 11:00:00,
2013-09-13 07:10:00,64.4,61.4,29.87,NW,305,1.0,1.0,90,0.00,,,0.00,Wunderground v.1.15,2013-09-13 11:10:00,
2013-09-13 07:15:00,64.4,61.4,29.87,WNW,289,0.0,1.0,90,0.00,,,0.00,Wunderground v.1.15,2013-09-13 11:15:00,
2013-09-13 07:20:00,64.3,61.3,29.87,WNW,289,0.0,1.0,90,0.00,,,0.00,Wunderground v.1.15,2013-09-13 11:20:00,
2013-09-13 07:25:00,64.3,61.3,29.87,WNW,289,0.0,1.0,90,0.00,,,0.00,Wunderground v.1.15,2013-09-13 11:25:00,
2013-09-13 07:30:00,64.3,61.3,29.87,WNW,289,0.0,0.0,90,0.00,,,0.00,Wunderground v.1.15,2013-09-13 11:30:00,
2013-09-13 07:40:00,64.5,61.2,29.87,WSW,256,1.0,1.0,89,0.00,,,0.00,Wunderground v.1.15,2013-09-13 11:40:00,
2013-09-13 07:45:00,64.7,61.4,29.88,WSW,256,0.0,1.0,89,0.00,,,0.00,Wunderground v.1.15,2013-09-13 11:45:00,
2013-09-13 07:55:00,64.6,61.6,29.87,WNW,292,0.0,3.0,90,0.00,,,0.00,Wunderground v.1.15,2013-09-13 11:55:00,
2013-09-13 08:05:00,65.0,61.7,29.87,West,260,0.0,0.0,89,0.00,,,0.00,Wunderground v.1.15,2013-09-13 12:05:00,
2013-09-13 08:10:00,65.0,61.7,29.87,WSW,249,0.0,0.0,89,0.00,,,0.00,Wunderground v.1.15,2013-09-13 12:10:00,
2013-09-13 08:15:00,65.3,62.0,29.87,WSW,249,0.0,0.0,89,0.00,,,0.00,Wunderground v.1.15,2013-09-13 12:15:00,
2013-09-13 08:25:00,65.6,62.3,29.87,West,278,1.0,1.0,89,0.00,,,0.00,Wunderground v.1.15,2013-09-13 12:25:00,
2013-09-13 08:30:00,65.7,62.0,29.87,West,278,0.0,0.0,88,0.00,,,0.00,Wunderground v.1.15,2013-09-13 12:30:00,
2013-09-13 08:35:00,65.5,61.9,29.87,WNW,287,0.0,3.0,88,0.00,,,0.00,Wunderground v.1.15,2013-09-13 12:35:00,
2013-09-13 08:40:00,65.6,61.6,29.87,West,279,1.0,1.0,87,0.00,,,0.00,Wunderground v.1.15,2013-09-13 12:40:00,
2013-09-13 08:50:00,65.9,61.9,29.87,WNW,296,1.0,1.0,87,0.00,,,0.00,Wunderground v.1.15,2013-09-13 12:50:00,
2013-09-13 08:55:00,66.3,61.7,29.87,NNW,338,1.0,1.0,85,0.00,,,0.00,Wunderground v.1.15,2013-09-13 12:55:00,
2013-09-13 09:00:00,66.7,61.7,29.87,NW,326,3.0,3.0,84,0.00,,,0.00,Wunderground v.1.15,2013-09-13 13:00:00,
2013-09-13 09:10:00,66.9,62.2,29.87,WNW,287,2.0,7.0,85,0.00,,,0.00,Wunderground v.1.15,2013-09-13 13:10:00,
2013-09-13 09:15:00,66.5,61.2,29.87,NW,323,2.0,7.0,83,0.00,,,0.00,Wunderground v.1.15,2013-09-13 13:15:00,
2013-09-13 09:20:00,66.5,60.8,29.87,NW,312,3.0,3.0,82,0.00,,,0.00,Wunderground v.1.15,2013-09-13 13:20:00,
2013-09-13 09:25:00,66.6,61.3,29.88,WNW,286,3.0,5.0,83,0.00,,,0.00,Wunderground v.1.15,2013-09-13 13:25:00,
2013-09-13 09:35:00,66.9,60.9,29.87,WNW,296,4.0,7.0,81,0.00,,,0.00,Wunderground v.1.15,2013-09-13 13:35:00,
2013-09-13 09:40:00,67.3,60.9,29.88,NNW,329,3.0,3.0,80,0.00,,,0.00,Wunderground v.1.15,2013-09-13 13:40:00,
2013-09-13 09:50:00,67.0,60.6,29.88,NW,313,4.0,4.0,80,0.00,,,0.00,Wunderground v.1.15,2013-09-13 13:50:00,
2013-09-13 09:55:00,67.2,61.2,29.88,West,267,3.0,4.0,81,0.00,,,0.00,Wunderground v.1.15,2013-09-13 13:55:00,
2013-09-13 10:00:00,67.3,61.3,29.88,NW,319,3.0,3.0,81,0.00,,,0.00,Wunderground v.1.15,2013-09-13 14:00:00,
2013-09-13 10:05:00,67.6,61.2,29.88,NW,309,2.0,3.0,80,0.00,,,0.00,Wunderground v.1.15,2013-09-13 14:05:00,
2013-09-13 10:10:00,67.6,59.4,29.88,WSW,254,3.0,4.0,75,0.00,,,0.00,Wunderground v.1.15,2013-09-13 14:10:00,
2013-09-13 10:15:00,67.8,60.3,29.88,West,273,3.0,5.0,77,0.00,,,0.00,Wunderground v.1.15,2013-09-13 14:15:00,
2013-09-13 10:25:00,68.3,60.1,29.88,West,274,4.0,4.0,75,0.00,,,0.00,Wunderground v.1.15,2013-09-13 14:25:00,
2013-09-13 10:30:00,68.5,59.1,29.88,West,276,3.0,5.0,72,0.00,,,0.00,Wunderground v.1.15,2013-09-13 14:30:00,
2013-09-13 10:40:00,67.9,56.9,29.89,NNW,348,6.0,6.0,68,0.00,,,0.00,Wunderground v.1.15,2013-09-13 14:40:00,
2013-09-13 10:45:00,68.3,58.1,29.89,WNW,282,4.0,6.0,70,0.00,,,0.00,Wunderground v.1.15,2013-09-13 14:45:00,
2013-09-13 10:50:00,68.8,57.4,29.88,WNW,284,2.0,2.0,67,0.00,,,0.00,Wunderground v.1.15,2013-09-13 14:50:00,
2013-09-13 10:55:00,68.8,57.4,29.89,West,278,3.0,5.0,67,0.00,,,0.00,Wunderground v.1.15,2013-09-13 14:55:00,
2013-09-13 11:05:00,68.0,57.8,29.89,WSW,247,3.0,4.0,70,0.00,,,0.00,Wunderground v.1.15,2013-09-13 15:05:00,
2013-09-13 11:10:00,68.2,56.0,29.89,SW,229,3.0,10.0,65,0.00,,,0.00,Wunderground v.1.15,2013-09-13 15:10:00,
2013-09-13 11:15:00,68.4,57.0,29.89,SSW,211,4.0,10.0,67,0.00,,,0.00,Wunderground v.1.15,2013-09-13 15:15:00,
2013-09-13 11:25:00,68.8,56.1,29.89,West,264,4.0,5.0,64,0.00,,,0.00,Wunderground v.1.15,2013-09-13 15:25:00,
2013-09-13 11:30:00,69.1,55.1,29.89,WSW,244,3.0,3.0,61,0.00,,,0.00,Wunderground v.1.15,2013-09-13 15:30:00,
2013-09-13 11:35:00,69.6,56.9,29.89,West,261,3.0,6.0,64,0.00,,,0.00,Wunderground v.1.15,2013-09-13 15:35:00,
2013-09-13 11:40:00,69.7,57.8,29.89,WSW,239,2.0,5.0,66,0.00,,,0.00,Wunderground v.1.15,2013-09-13 15:40:00,
2013-09-13 11:45:00,69.0,56.7,29.89,NW,320,4.0,11.0,65,0.00,,,0.00,Wunderground v.1.15,2013-09-13 15:45:00,
2013-09-13 11:50:00,69.0,57.2,29.89,WNW,293,3.0,-999.0,66,0.00,,,0.00,Wunderground v.1.15,2013-09-13 15:50:00,
2013-09-13 11:55:00,69.2,57.8,29.89,WNW,293,4.0,-999.0,67,0.00,,,0.00,Wunderground v.1.15,2013-09-13 15:55:00,
2013-09-13 12:00:00,69.2,57.8,29.89,WNW,293,4.0,-999.0,67,0.00,,,0.00,Wunderground v.1.15,2013-09-13 16:00:00,
2013-09-13 12:05:00,69.2,57.8,29.89,WNW,293,4.0,-999.0,67,0.00,,,0.00,Wunderground v.1.15,2013-09-13 16:05:00,
2013-09-13 12:10:00,68.6,57.6,29.89,WNW,293,5.0,-999.0,68,0.00,,,0.00,Wunderground v.1.15,2013-09-13 16:10:00,
2013-09-13 12:15:00,68.6,57.6,29.89,WNW,293,5.0,-999.0,68,0.00,,,0.00,Wunderground v.1.15,2013-09-13 16:15:00,
2013-09-13 12:20:00,68.6,57.6,29.89,WNW,293,5.0,-999.0,68,0.00,,,0.00,Wunderground v.1.15,2013-09-13 16:20:00,
2013-09-13 12:25:00,69.4,58.0,29.90,WNW,293,4.0,-999.0,67,0.00,,,0.00,Wunderground v.1.15,2013-09-13 16:25:00,
2013-09-13 12:30:00,69.4,58.0,29.90,WNW,293,4.0,-999.0,67,0.00,,,0.00,Wunderground v.1.15,2013-09-13 16:30:00,
2013-09-13 12:35:00,69.4,58.0,29.90,WNW,293,4.0,-999.0,67,0.00,,,0.00,Wunderground v.1.15,2013-09-13 16:35:00,
2013-09-13 12:40:00,69.0,55.9,29.90,WNW,293,5.0,-999.0,63,0.00,,,0.00,Wunderground v.1.15,2013-09-13 16:40:00,
2013-09-13 12:45:00,69.0,55.9,29.90,WNW,293,5.0,-999.0,63,0.00,,,0.00,Wunderground v.1.15,2013-09-13 16:45:00,
2013-09-13 12:50:00,69.0,55.9,29.90,WNW,293,5.0,-999.0,63,0.00,,,0.00,Wunderground v.1.15,2013-09-13 16:50:00,
2013-09-13 12:55:00,68.0,57.0,29.90,West,270,5.0,-999.0,68,0.00,,,0.00,Wunderground v.1.15,2013-09-13 16:55:00,
2013-09-13 13:00:00,68.0,57.0,29.90,West,270,5.0,-999.0,68,0.00,,,0.00,Wunderground v.1.15,2013-09-13 17:00:00,
2013-09-13 13:05:00,68.0,57.0,29.90,West,270,5.0,-999.0,68,0.00,,,0.00,Wunderground v.1.15,2013-09-13 17:05:00,
2013-09-13 13:10:00,69.4,53.0,29.90,WNW,293,5.0,-999.0,56,0.00,,,0.00,Wunderground v.1.15,2013-09-13 17:10:00,
2013-09-13 13:15:00,69.4,53.0,29.90,WNW,293,5.0,-999.0,56,0.00,,,0.00,Wunderground v.1.15,2013-09-13 17:15:00,
2013-09-13 13:20:00,69.4,53.0,29.90,WNW,293,5.0,-999.0,56,0.00,,,0.00,Wunderground v.1.15,2013-09-13 17:20:00,
2013-09-13 13:25:00,70.0,53.6,29.90,WNW,293,4.0,-999.0,56,0.00,,,0.00,Wunderground v.1.15,2013-09-13 17:25:00,
2013-09-13 13:30:00,70.0,53.6,29.90,WNW,293,4.0,-999.0,56,0.00,,,0.00,Wunderground v.1.15,2013-09-13 17:30:00,
2013-09-13 13:35:00,70.0,53.6,29.90,WNW,293,4.0,-999.0,56,0.00,,,0.00,Wunderground v.1.15,2013-09-13 17:35:00,
2013-09-13 13:40:00,69.0,53.1,29.90,West,270,4.0,-999.0,57,0.00,,,0.00,Wunderground v.1.15,2013-09-13 17:40:00,
2013-09-13 13:45:00,69.0,53.1,29.90,West,270,4.0,-999.0,57,0.00,,,0.00,Wunderground v.1.15,2013-09-13 17:45:00,
2013-09-13 13:50:00,69.0,53.1,29.90,West,270,4.0,-999.0,57,0.00,,,0.00,Wunderground v.1.15,2013-09-13 17:50:00,
2013-09-13 13:55:00,70.0,53.6,29.90,WNW,293,4.0,-999.0,56,0.00,,,0.00,Wunderground v.1.15,2013-09-13 17:55:00,
2013-09-13 14:00:00,70.0,53.6,29.90,WNW,293,4.0,-999.0,56,0.00,,,0.00,Wunderground v.1.15,2013-09-13 18:00:00,
2013-09-13 14:05:00,70.0,53.6,29.90,WNW,293,4.0,-999.0,56,0.00,,,0.00,Wunderground v.1.15,2013-09-13 18:05:00,
2013-09-13 14:10:00,69.8,53.9,29.90,WNW,293,6.0,-999.0,57,0.00,,,0.00,Wunderground v.1.15,2013-09-13 18:10:00,
2013-09-13 14:15:00,69.8,53.9,29.90,WNW,293,6.0,-999.0,57,0.00,,,0.00,Wunderground v.1.15,2013-09-13 18:15:00,
2013-09-13 14:20:00,69.8,53.9,29.90,WNW,293,6.0,-999.0,57,0.00,,,0.00,Wunderground v.1.15,2013-09-13 18:20:00,
2013-09-13 14:25:00,69.2,51.8,29.90,West,270,5.0,-999.0,54,0.00,,,0.00,Wunderground v.1.15,2013-09-13 18:25:00,
2013-09-13 14:30:00,69.2,51.8,29.90,West,270,5.0,-999.0,54,0.00,,,0.00,Wunderground v.1.15,2013-09-13 18:30:00,
2013-09-13 14:35:00,69.2,51.8,29.90,West,270,5.0,-999.0,54,0.00,,,0.00,Wunderground v.1.15,2013-09-13 18:35:00,
2013-09-13 14:40:00,69.7,51.8,29.89,West,270,4.0,-999.0,53,0.00,,,0.00,Wunderground v.1.15,2013-09-13 18:40:00,
2013-09-13 14:45:00,69.7,51.8,29.89,West,270,4.0,-999.0,53,0.00,,,0.00,Wunderground v.1.15,2013-09-13 18:45:00,
2013-09-13 14:50:00,69.7,51.8,29.89,West,270,4.0,-999.0,53,0.00,,,0.00,Wunderground v.1.15,2013-09-13 18:50:00,
2013-09-13 14:55:00,69.9,53.0,29.89,WNW,293,3.0,-999.0,55,0.00,,,0.00,Wunderground v.1.15,2013-09-13 18:55:00,
2013-09-13 15:00:00,69.9,53.0,29.89,WNW,293,3.0,-999.0,55,0.00,,,0.00,Wunderground v.1.15,2013-09-13 19:00:00,
2013-09-13 15:05:00,69.9,53.0,29.89,WNW,293,3.0,-999.0,55,0.00,,,0.00,Wunderground v.1.15,2013-09-13 19:05:00,
2013-09-13 15:10:00,70.1,50.0,29.89,West,270,5.0,-999.0,49,0.00,,,0.00,Wunderground v.1.15,2013-09-13 19:10:00,
2013-09-13 15:15:00,70.1,50.0,29.89,West,270,5.0,-999.0,49,0.00,,,0.00,Wunderground v.1.15,2013-09-13 19:15:00,
2013-09-13 15:20:00,70.1,50.0,29.89,West,270,5.0,-999.0,49,0.00,,,0.00,Wunderground v.1.15,2013-09-13 19:20:00,
2013-09-13 15:25:00,67.7,54.6,29.89,West,270,4.0,-999.0,63,0.00,,,0.00,Wunderground v.1.15,2013-09-13 19:25:00,
2013-09-13 15:30:00,67.7,54.6,29.89,West,270,4.0,-999.0,63,0.00,,,0.00,Wunderground v.1.15,2013-09-13 19:30:00,
2013-09-13 15:35:00,67.7,54.6,29.89,West,270,4.0,-999.0,63,0.00,,,0.00,Wunderground v.1.15,2013-09-13 19:35:00,
2013-09-13 15:40:00,68.5,53.6,29.89,West,270,4.0,-999.0,59,0.00,,,0.00,Wunderground v.1.15,2013-09-13 19:40:00,
2013-09-13 15:45:00,68.5,53.6,29.89,West,270,4.0,-999.0,59,0.00,,,0.00,Wunderground v.1.15,2013-09-13 19:45:00,
2013-09-13 15:50:00,68.5,53.6,29.89,West,270,4.0,-999.0,59,0.00,,,0.00,Wunderground v.1.15,2013-09-13 19:50:00,
2013-09-13 15:55:00,69.5,55.0,29.89,WNW,293,4.0,-999.0,60,0.00,,,0.00,Wunderground v.1.15,2013-09-13 19:55:00,
2013-09-13 16:00:00,69.5,55.0,29.89,WNW,293,4.0,-999.0,60,0.00,,,0.00,Wunderground v.1.15,2013-09-13 20:00:00,
2013-09-13 16:05:00,69.5,55.0,29.89,WNW,293,4.0,-999.0,60,0.00,,,0.00,Wunderground v.1.15,2013-09-13 20:05:00,
2013-09-13 16:10:00,67.3,54.7,29.89,West,270,5.0,-999.0,64,0.00,,,0.00,Wunderground v.1.15,2013-09-13 20:10:00,
2013-09-13 16:15:00,67.3,54.7,29.89,West,270,5.0,-999.0,64,0.00,,,0.00,Wunderground v.1.15,2013-09-13 20:15:00,
2013-09-13 16:20:00,67.3,54.7,29.89,West,270,5.0,-999.0,64,0.00,,,0.00,Wunderground v.1.15,2013-09-13 20:20:00,
2013-09-13 16:25:00,68.2,51.4,29.89,West,270,4.0,-999.0,55,0.00,,,0.00,Wunderground v.1.15,2013-09-13 20:25:00,
2013-09-13 16:30:00,68.2,51.4,29.89,West,270,4.0,-999.0,55,0.00,,,0.00,Wunderground v.1.15,2013-09-13 20:30:00,
2013-09-13 16:35:00,68.2,51.4,29.89,West,270,4.0,-999.0,55,0.00,,,0.00,Wunderground v.1.15,2013-09-13 20:35:00,
2013-09-13 16:40:00,69.1,56.0,29.89,SW,225,2.0,-999.0,63,0.00,,,0.00,Wunderground v.1.15,2013-09-13 20:40:00,
2013-09-13 16:45:00,69.1,56.0,29.89,SW,225,2.0,-999.0,63,0.00,,,0.00,Wunderground v.1.15,2013-09-13 20:45:00,
2013-09-13 16:50:00,69.1,56.0,29.89,SW,225,2.0,-999.0,63,0.00,,,0.00,Wunderground v.1.15,2013-09-13 20:50:00,
2013-09-13 16:55:00,67.8,54.3,29.89,West,270,3.0,-999.0,62,0.00,,,0.00,Wunderground v.1.15,2013-09-13 20:55:00,
2013-09-13 17:00:00,67.8,54.3,29.89,West,270,3.0,-999.0,62,0.00,,,0.00,Wunderground v.1.15,2013-09-13 21:00:00,
2013-09-13 17:05:00,67.8,54.3,29.89,West,270,3.0,-999.0,62,0.00,,,0.00,Wunderground v.1.15,2013-09-13 21:05:00,
2013-09-13 17:10:00,69.0,51.7,29.89,WNW,293,3.0,-999.0,54,0.00,,,0.00,Wunderground v.1.15,2013-09-13 21:10:00,
2013-09-13 17:15:00,69.0,51.7,29.89,WNW,293,3.0,-999.0,54,0.00,,,0.00,Wunderground v.1.15,2013-09-13 21:15:00,
2013-09-13 17:20:00,69.0,51.7,29.89,WNW,293,3.0,-999.0,54,0.00,,,0.00,Wunderground v.1.15,2013-09-13 21:20:00,
2013-09-13 17:25:00,67.6,53.2,29.90,West,270,4.0,-999.0,60,0.00,,,0.00,Wunderground v.1.15,2013-09-13 21:25:00,
2013-09-13 17:30:00,67.6,53.2,29.90,West,270,4.0,-999.0,60,0.00,,,0.00,Wunderground v.1.15,2013-09-13 21:30:00,
2013-09-13 17:35:00,67.6,53.2,29.90,West,270,4.0,-999.0,60,0.00,,,0.00,Wunderground v.1.15,2013-09-13 21:35:00,
2013-09-13 17:40:00,66.8,53.4,29.90,West,270,4.0,-999.0,62,0.00,,,0.00,Wunderground v.1.15,2013-09-13 21:40:00,
2013-09-13 17:45:00,66.8,53.4,29.90,West,270,4.0,-999.0,62,0.00,,,0.00,Wunderground v.1.15,2013-09-13 21:45:00,
2013-09-13 17:50:00,66.8,53.4,29.90,West,270,4.0,-999.0,62,0.00,,,0.00,Wunderground v.1.15,2013-09-13 21:50:00,
2013-09-13 17:55:00,65.6,51.8,29.91,West,270,4.0,-999.0,61,0.00,,,0.00,Wunderground v.1.15,2013-09-13 21:55:00,
2013-09-13 18:00:00,65.6,51.8,29.91,West,270,4.0,-999.0,61,0.00,,,0.00,Wunderground v.1.15,2013-09-13 22:00:00,
2013-09-13 18:05:00,65.6,51.8,29.91,West,270,4.0,-999.0,61,0.00,,,0.00,Wunderground v.1.15,2013-09-13 22:05:00,
2013-09-13 18:10:00,63.8,53.4,29.90,WSW,248,2.0,-999.0,69,0.00,,,0.00,Wunderground v.1.15,2013-09-13 22:10:00,
2013-09-13 18:15:00,63.8,53.4,29.90,WSW,248,2.0,-999.0,69,0.00,,,0.00,Wunderground v.1.15,2013-09-13 22:15:00,
2013-09-13 18:20:00,63.8,53.4,29.90,WSW,248,2.0,-999.0,69,0.00,,,0.00,Wunderground v.1.15,2013-09-13 22:20:00,
2013-09-13 18:25:00,63.5,53.1,29.91,WSW,248,2.0,-999.0,69,0.00,,,0.00,Wunderground v.1.15,2013-09-13 22:25:00,
2013-09-13 18:30:00,63.5,53.1,29.91,WSW,248,2.0,-999.0,69,0.00,,,0.00,Wunderground v.1.15,2013-09-13 22:30:00,
2013-09-13 18:35:00,63.5,53.1,29.91,WSW,248,2.0,-999.0,69,0.00,,,0.00,Wunderground v.1.15,2013-09-13 22:35:00,
2013-09-13 18:40:00,63.6,52.8,29.91,West,270,1.0,-999.0,68,0.00,,,0.00,Wunderground v.1.15,2013-09-13 22:40:00,
2013-09-13 18:45:00,63.6,52.8,29.91,West,270,1.0,-999.0,68,0.00,,,0.00,Wunderground v.1.15,2013-09-13 22:45:00,
2013-09-13 18:50:00,63.6,52.8,29.91,West,270,1.0,-999.0,68,0.00,,,0.00,Wunderground v.1.15,2013-09-13 22:50:00,
2013-09-13 18:55:00,62.6,51.5,29.92,West,270,1.0,-999.0,67,0.00,,,0.00,Wunderground v.1.15,2013-09-13 22:55:00,
2013-09-13 19:00:00,62.6,51.5,29.92,West,270,1.0,-999.0,67,0.00,,,0.00,Wunderground v.1.15,2013-09-13 23:00:00,
2013-09-13 19:05:00,62.6,51.5,29.92,West,270,1.0,-999.0,67,0.00,,,0.00,Wunderground v.1.15,2013-09-13 23:05:00,
2013-09-13 19:10:00,60.7,53.4,29.92,West,270,0.0,-999.0,77,0.00,,,0.00,Wunderground v.1.15,2013-09-13 23:10:00,
2013-09-13 19:15:00,60.7,53.4,29.92,West,270,0.0,-999.0,77,0.00,,,0.00,Wunderground v.1.15,2013-09-13 23:15:00,
2013-09-13 19:20:00,60.7,53.4,29.92,West,270,0.0,-999.0,77,0.00,,,0.00,Wunderground v.1.15,2013-09-13 23:20:00,
2013-09-13 19:25:00,58.8,53.3,29.93,West,270,0.0,-999.0,82,0.00,,,0.00,Wunderground v.1.15,2013-09-13 23:25:00,
2013-09-13 19:30:00,58.8,53.3,29.93,West,270,0.0,-999.0,82,0.00,,,0.00,Wunderground v.1.15,2013-09-13 23:30:00,
2013-09-13 19:35:00,58.8,53.3,29.93,West,270,0.0,-999.0,82,0.00,,,0.00,Wunderground v.1.15,2013-09-13 23:35:00,
2013-09-13 19:40:00,57.3,52.8,29.94,West,270,0.0,-999.0,85,0.00,,,0.00,Wunderground v.1.15,2013-09-13 23:40:00,
2013-09-13 19:45:00,57.3,52.8,29.94,West,270,0.0,-999.0,85,0.00,,,0.00,Wunderground v.1.15,2013-09-13 23:45:00,
2013-09-13 19:50:00,57.3,52.8,29.94,West,270,0.0,-999.0,85,0.00,,,0.00,Wunderground v.1.15,2013-09-13 23:50:00,
2013-09-13 19:55:00,56.3,52.5,29.94,West,270,0.0,-999.0,87,0.00,,,0.00,Wunderground v.1.15,2013-09-13 23:55:00,
2013-09-13 20:00:00,56.3,52.5,29.94,West,270,0.0,-999.0,87,0.00,,,0.00,Wunderground v.1.15,2013-09-14 00:00:00,
2013-09-13 20:05:00,56.3,52.5,29.94,West,270,0.0,-999.0,87,0.00,,,0.00,Wunderground v.1.15,2013-09-14 00:05:00,
2013-09-13 20:10:00,55.7,52.2,29.95,West,270,0.0,-999.0,88,0.00,,,0.00,Wunderground v.1.15,2013-09-14 00:10:00,
2013-09-13 20:15:00,55.7,52.2,29.95,West,270,0.0,-999.0,88,0.00,,,0.00,Wunderground v.1.15,2013-09-14 00:15:00,
2013-09-13 20:20:00,55.7,52.2,29.95,West,270,0.0,-999.0,88,0.00,,,0.00,Wunderground v.1.15,2013-09-14 00:20:00,
2013-09-13 20:25:00,54.9,51.7,29.95,West,270,0.0,-999.0,89,0.00,,,0.00,Wunderground v.1.15,2013-09-14 00:25:00,
2013-09-13 20:30:00,54.9,51.7,29.95,West,270,0.0,-999.0,89,0.00,,,0.00,Wunderground v.1.15,2013-09-14 00:30:00,
2013-09-13 20:35:00,54.9,51.7,29.95,West,270,0.0,-999.0,89,0.00,,,0.00,Wunderground v.1.15,2013-09-14 00:35:00,
2013-09-13 20:40:00,54.3,51.4,29.96,West,270,0.0,-999.0,90,0.00,,,0.00,Wunderground v.1.15,2013-09-14 00:40:00,
2013-09-13 20:45:00,54.3,51.4,29.96,West,270,0.0,-999.0,90,0.00,,,0.00,Wunderground v.1.15,2013-09-14 00:45:00,
2013-09-13 20:50:00,54.3,51.4,29.96,West,270,0.0,-999.0,90,0.00,,,0.00,Wunderground v.1.15,2013-09-14 00:50:00,
2013-09-13 20:55:00,54.1,51.2,29.96,West,270,0.0,-999.0,90,0.00,,,0.00,Wunderground v.1.15,2013-09-14 00:55:00,
2013-09-13 21:00:00,54.1,51.2,29.96,West,270,0.0,-999.0,90,0.00,,,0.00,Wunderground v.1.15,2013-09-14 01:00:00,
2013-09-13 21:05:00,54.1,51.2,29.96,West,270,0.0,-999.0,90,0.00,,,0.00,Wunderground v.1.15,2013-09-14 01:05:00,
2013-09-13 21:10:00,54.9,51.7,29.97,South,180,0.0,-999.0,89,0.00,,,0.00,Wunderground v.1.15,2013-09-14 01:10:00,
2013-09-13 21:15:00,54.9,51.7,29.97,South,180,0.0,-999.0,89,0.00,,,0.00,Wunderground v.1.15,2013-09-14 01:15:00,
2013-09-13 21:20:00,54.9,51.7,29.97,South,180,0.0,-999.0,89,0.00,,,0.00,Wunderground v.1.15,2013-09-14 01:20:00,
2013-09-13 21:25:00,55.6,51.8,29.98,SSW,203,0.0,-999.0,87,0.00,,,0.00,Wunderground v.1.15,2013-09-14 01:25:00,
2013-09-13 21:30:00,55.6,51.8,29.98,SSW,203,0.0,-999.0,87,0.00,,,0.00,Wunderground v.1.15,2013-09-14 01:30:00,
2013-09-13 21:35:00,55.6,51.8,29.98,SSW,203,0.0,-999.0,87,0.00,,,0.00,Wunderground v.1.15,2013-09-14 01:35:00,
2013-09-13 21:40:00,56.2,52.1,29.98,SW,225,1.0,-999.0,86,0.00,,,0.00,Wunderground v.1.15,2013-09-14 01:40:00,
2013-09-13 21:45:00,56.2,52.1,29.98,SW,225,1.0,-999.0,86,0.00,,,0.00,Wunderground v.1.15,2013-09-14 01:45:00,
2013-09-13 21:50:00,56.2,52.1,29.98,SW,225,1.0,-999.0,86,0.00,,,0.00,Wunderground v.1.15,2013-09-14 01:50:00,
2013-09-13 21:55:00,55.6,51.5,29.99,WSW,248,0.0,-999.0,86,0.00,,,0.00,Wunderground v.1.15,2013-09-14 01:55:00,
2013-09-13 22:00:00,55.6,51.5,29.99,WSW,248,0.0,-999.0,86,0.00,,,0.00,Wunderground v.1.15,2013-09-14 02:00:00,
2013-09-13 22:05:00,55.6,51.5,29.99,WSW,248,0.0,-999.0,86,0.00,,,0.00,Wunderground v.1.15,2013-09-14 02:05:00,
2013-09-13 22:10:00,55.9,51.5,30.00,WSW,248,1.0,-999.0,85,0.00,,,0.00,Wunderground v.1.15,2013-09-14 02:10:00,
2013-09-13 22:15:00,55.9,51.5,30.00,WSW,248,1.0,-999.0,85,0.00,,,0.00,Wunderground v.1.15,2013-09-14 02:15:00,
2013-09-13 22:20:00,55.9,51.5,30.00,WSW,248,1.0,-999.0,85,0.00,,,0.00,Wunderground v.1.15,2013-09-14 02:20:00,
2013-09-13 22:25:00,55.6,50.8,30.00,SSW,203,1.0,-999.0,84,0.00,,,0.00,Wunderground v.1.15,2013-09-14 02:25:00,
2013-09-13 22:30:00,55.6,50.8,30.00,SSW,203,1.0,-999.0,84,0.00,,,0.00,Wunderground v.1.15,2013-09-14 02:30:00,
2013-09-13 22:35:00,55.6,50.8,30.00,SSW,203,1.0,-999.0,84,0.00,,,0.00,Wunderground v.1.15,2013-09-14 02:35:00,
2013-09-13 22:40:00,55.4,50.6,30.00,SW,225,0.0,-999.0,84,0.00,,,0.00,Wunderground v.1.15,2013-09-14 02:40:00,
2013-09-13 22:45:00,55.4,50.6,30.00,SW,225,0.0,-999.0,84,0.00,,,0.00,Wunderground v.1.15,2013-09-14 02:45:00,
2013-09-13 22:50:00,55.4,50.6,30.00,SW,225,0.0,-999.0,84,0.00,,,0.00,Wunderground v.1.15,2013-09-14 02:50:00,
2013-09-13 22:55:00,54.6,50.5,30.01,West,270,0.0,-999.0,86,0.00,,,0.00,Wunderground v.1.15,2013-09-14 02:55:00,
2013-09-13 23:00:00,54.6,50.5,30.01,West,270,0.0,-999.0,86,0.00,,,0.00,Wunderground v.1.15,2013-09-14 03:00:00,
2013-09-13 23:05:00,54.6,50.5,30.01,West,270,0.0,-999.0,86,0.00,,,0.00,Wunderground v.1.15,2013-09-14 03:05:00,
2013-09-13 23:10:00,54.2,50.1,30.01,ESE,113,1.0,-999.0,86,0.00,,,0.00,Wunderground v.1.15,2013-09-14 03:10:00,
2013-09-13 23:15:00,54.2,50.1,30.01,ESE,113,1.0,-999.0,86,0.00,,,0.00,Wunderground v.1.15,2013-09-14 03:15:00,
2013-09-13 23:20:00,54.2,50.1,30.01,ESE,113,1.0,-999.0,86,0.00,,,0.00,Wunderground v.1.15,2013-09-14 03:20:00,
2013-09-13 23:25:00,53.6,49.8,30.01,ENE,68,0.0,-999.0,87,0.00,,,0.00,Wunderground v.1.15,2013-09-14 03:25:00,
2013-09-13 23:30:00,53.6,49.8,30.01,ENE,68,0.0,-999.0,87,0.00,,,0.00,Wunderground v.1.15,2013-09-14 03:30:00,
2013-09-13 23:35:00,53.6,49.8,30.01,ENE,68,0.0,-999.0,87,0.00,,,0.00,Wunderground v.1.15,2013-09-14 03:35:00,
2013-09-13 23:40:00,52.9,49.4,30.01,SW,225,0.0,-999.0,88,0.00,,,0.00,Wunderground v.1.15,2013-09-14 03:40:00,
2013-09-13 23:45:00,52.9,49.4,30.01,SW,225,0.0,-999.0,88,0.00,,,0.00,Wunderground v.1.15,2013-09-14 03:45:00,
2013-09-13 23:50:00,52.9,49.4,30.01,SW,225,0.0,-999.0,88,0.00,,,0.00,Wunderground v.1.15,2013-09-14 03:50:00,
2013-09-13 23:55:00,52.4,48.9,30.00,SSW,203,0.0,-999.0,88,0.00,,,0.00,Wunderground v.1.15,2013-09-14 03:55:00,